Aviation Digital Data Service (ADDS)

Output produced by TAFs form (1740 UTC 22 August 2014)
found at http://www.aviationweather.gov/adds/tafs/
 
KMDT 221502Z 2215/2312 15003KT P6SM OVC011 
     FM221600 VRB04KT P6SM SCT040 
     FM221800 VRB04KT P6SM VCTS BKN050CB 
     FM230000 11004KT P6SM OVC025 
     FM230600 10004KT 5SM BR OVC015